Tiempo atmosférico en la estación meteorológica de Campos, Can Sion, Illes Balears (40 m.)



Fecha
DESCASC
Temp. máxima en grados centígrados (hora)
DESCASC
Temp. mínima en grados centígrados (hora)
DESCASC
Temp. media en grados centígrados
DESCASC
Racha de viento máxima en m/sg (hora)
DESCASC
Velocidad máxima media en intervalos de 10 minutos(hora)
DESCASC
Precipitaciones diarias en mm
DESCASC
Precipitaciones de 00:00 a 06:00 en mm
DESCASC
Precipitaciones de 06:00 a 12:00 en mm
DESCASC
Precipitaciones de 12:00 a 18:00 en mm
DESCASC
Precipitaciones de 18:00 a 24:00 en mm
DESCASC
16-06-2019 28.9 (15:30) 15.1 (06:00) 22 9.17 (13:40) 5.56 (16:50) 0 0 0 0 0
15-06-2019 28.8 (15:40) 13.7 (03:20) 21.2 9.17 (09:30) 5.28 (09:20) 0 0 0 0 0
14-06-2019 25.7 (15:20) 18 (23:59) 21.9 15 (11:30) 8.61 (12:40) 0 0 0 0 0
13-06-2019 26.9 (13:40) 11.5 (00:00) 19.2 11.67 (14:40) 6.67 (16:30) 0 0 0 0 0
12-06-2019 24.1 (16:30) 15.6 (00:00) 19.9 9.72 (00:20) 5.28 (16:00) 0 0 0 0 0
11-06-2019 25.4 (17:20) 12.7 (00:00) 19 10.28 (22:10) 5.28 (23:50) 0 0 0 0 0
10-06-2019 29.2 (14:20) 14.6 (00:00) 21.9 10.28 (08:50) 5.56 (15:10) 0 0 0 0 0
09-06-2019 28.7 (14:50) 17.2 (00:00) 23 9.17 (12:50) 5.28 (13:10) 0 0 0 0 0
08-06-2019 27.5 (15:40) 13.7 (00:00) 20.6 12.5 (11:30) 6.94 (11:30) 0 0 0 0 0
07-06-2019 27.9 (18:00) 13.9 (00:00) 20.9 10.28 (14:10) 5.83 (14:20) 0 0 0 0 0
06-06-2019 26 (15:30) 12.2 (00:00) 19.1 9.72 (16:10) 5.56 (14:20) 0 0 0 0 0
05-06-2019 27.4 (16:30) 12.7 (00:00) 20 13.61 (17:20) 7.78 (17:20) 0 0 0 0 0
04-06-2019 28.8 (15:30) 10.1 (00:00) 19.4 8.89 (17:00) 5.56 (17:00) 0 0 0 0 0
03-06-2019 28.7 (12:50) 8.6 (00:00) 18.7 7.5 (14:50) 4.72 (14:40) 0 0 0 0 0
02-06-2019 28.2 (15:30) 8.8 (00:00) 18.5 6.94 (15:30) 3.89 (16:50) 0 0 0 0 0
01-06-2019 26.8 (16:00) 8.5 (00:00) 17.6 7.78 (14:00) 3.89 (13:50) 0 0 0 0 0
31-05-2019 26.3 (14:10) 8.4 (00:00) 17.3 8.33 (15:00) 4.44 (11:40) 0 0 0 0 0
30-05-2019 24 (16:20) 8.7 (00:00) 16.3 10.56 (17:30) 5.83 (18:20) 0 0 0 0 0
29-05-2019 23.1 (15:50) 11.6 (00:00) 17.4 10.56 (15:30) 4.17 (18:00) 0.2 0 0.2 0 0
28-05-2019 26.3 (17:10) 12.9 (00:00) 19.6 9.72 (19:50) 5.56 (19:50) 0 0 0 0 0
27-05-2019 24.6 (10:30) 10.4 (00:00) 17.5 8.61 (14:50) 5.28 (15:20) 0 0 0 0 0
26-05-2019 23.7 (11:40) 12 (00:00) 17.9 9.17 (14:40) 4.44 (12:40) 0 0 0 0 0
25-05-2019 21.5 (17:10) 14 (00:00) 17.8 9.44 (17:50) 4.72 (17:50) 5.6 0.2 1.6 3.8 0
24-05-2019 24 (12:30) 11 (00:00) 17.5 4.44 (18:50) 2.22 (13:30) 3.8 0 0 3 0.8
23-05-2019 27.1 (14:40) 8 (00:00) 17.6 8.06 (15:40) 5 (15:30) 0 0 0 0 0
22-05-2019 26.5 (13:50) 8.6 (00:00) 17.6 7.5 (14:40) 3.89 (18:20) 0 0 0 0 0

Gráficas

Temp. máximas Temp. mínimas Temp. medias Precipitaciones Rachas de viento máximas Velocidades máximas media en intervalos de 10 minutos

Datos horarios

Fecha y hora oficial Temperatura (ºC) Velocidad del viento (km/h) Dirección del viento Racha (km/h) Dirección de racha Precipitación (mm) Presión (hPa) Tendencia (hPa) Humedad (%)
2019-06-20 23:00:00 21.7 5 Este 12 Sudeste 0 -- -- 86
2019-06-20 22:00:00 22.5 4 Sudeste 9 Sudeste 0 -- -- 77
2019-06-20 21:00:00 23.8 5 Sudoeste 13 Sudoeste 0 -- -- 62
2019-06-20 20:00:00 25.7 8 Sudoeste 19 Sudoeste 0 -- -- 63
2019-06-20 19:00:00 27.1 9 Sudoeste 19 Sudoeste 0 -- -- 63
2019-06-20 18:00:00 27.8 9 Sudoeste 24 Sudoeste 0 -- -- 61
2019-06-20 17:00:00 28 13 Sudoeste 26 Sudoeste 0 -- -- 61
2019-06-20 16:00:00 29.3 8 Sur 24 Sudeste 0 -- -- 49
2019-06-20 15:00:00 29.2 8 Sur 24 Sudeste 0 -- -- 47
2019-06-20 14:00:00 28 12 Sudeste 28 Este 0 -- -- 55
2019-06-20 13:00:00 27.5 14 Sudeste 28 Sudeste 0 -- -- 57
2019-06-20 12:00:00 27.7 16 Sudeste 31 Este 0 -- -- 57
2019-06-20 11:00:00 26.9 13 Sudeste 24 Este 0 -- -- 59
2019-06-20 10:00:00 25.7 11 Sudeste 21 Este 0 -- -- 63
2019-06-20 09:00:00 23.3 9 Nordeste 18 Nordeste 0 -- -- 73
2019-06-20 08:00:00 20.4 7 Nordeste 14 Norte 0 -- -- 86
2019-06-20 07:00:00 18.8 5 Norte 10 Nordeste 0 -- -- 89
2019-06-20 06:00:00 20.2 3 Oeste 13 Sudoeste 0 -- -- 85
2019-06-20 05:00:00 20.9 5 Oeste 12 Oeste 0 -- -- 83
2019-06-20 04:00:00 20.7 2 Sudoeste 9 Sudoeste 0 -- -- 86
2019-06-20 03:00:00 20.4 3 Sudoeste 11 Sudoeste 0 -- -- 89
2019-06-20 02:00:00 19.5 3 Sur 9 Sur 0 -- -- 95
2019-06-20 01:00:00 17.3 4 Sudeste 5 Sudeste 0 -- -- 94
2019-06-20 00:00:00 18 2 Este 6 Sudoeste 0 -- -- 92
2019-06-19 23:00:00 17.9 2 Sudeste 4 Sudoeste 0 -- -- 86
2019-06-19 22:00:00 20.2 2 Sudoeste 11 Sudoeste 0 -- -- 85
2019-06-19 21:00:00 22.1 7 Sudoeste 19 Sudoeste 0 -- -- 82
2019-06-19 20:00:00 24.1 11 Sudoeste 22 Sudoeste 0 -- -- 74
2019-06-19 19:00:00 25.5 12 Sudoeste 23 Sudoeste 0 -- -- 69
2019-06-19 18:00:00 26.1 13 Sudoeste 24 Sudoeste 0 -- -- 63
2019-06-19 17:00:00 26.5 13 Oeste 26 Sudoeste 0 -- -- 63
2019-06-19 16:00:00 26.9 15 Sudoeste 28 Sudoeste 0 -- -- 62
2019-06-19 15:00:00 27.2 13 Sudoeste 26 Sudoeste 0 -- -- 61
2019-06-19 14:00:00 27 15 Sudoeste 28 Oeste 0 -- -- 61
2019-06-19 13:00:00 26.6 15 Sudoeste 31 Sudoeste 0 -- -- 61
2019-06-19 12:00:00 27.1 12 Sur 26 Sur 0 -- -- 56
2019-06-19 11:00:00 27.6 11 Sudeste 18 Sudeste 0 -- -- 53
2019-06-19 10:00:00 25.8 4 Sur 11 Sur 0 -- -- 56
2019-06-19 09:00:00 22.5 5 Sudeste 12 Este 0 -- -- 77
2019-06-19 08:00:00 17.7 0 Calma 5 Este 0 -- -- 94
2019-06-19 07:00:00 12.3 3 Este -- -- -- -- -- 92
2019-06-19 06:00:00 -- -- -- -- -- -- -- -- --
2019-06-19 05:00:00 -- -- -- -- -- -- -- -- --
2019-06-19 04:00:00 -- -- -- -- -- -- -- -- --
2019-06-19 03:00:00 -- -- -- -- -- -- -- -- --
2019-06-19 02:00:00 -- -- -- -- -- -- -- -- --
2019-06-19 01:00:00 -- -- -- -- -- -- -- -- --
2019-06-19 00:00:00 -- -- -- -- -- -- -- -- --
2019-06-18 23:00:00 -- -- -- -- -- -- -- -- --
2019-06-18 22:00:00 -- -- -- -- -- -- -- -- --
2019-06-18 21:00:00 -- -- -- -- -- -- -- -- --
2019-06-18 20:00:00 -- -- -- -- -- -- -- -- --
2019-06-18 19:00:00 27.9 10 Sudeste 21 Sudeste 0 -- -- 36
2019-06-18 18:00:00 28.9 12 Sudeste 22 Sudeste 0 -- -- 35
2019-06-18 17:00:00 29.2 11 Sur 24 Sudeste 0 -- -- 35
2019-06-18 16:00:00 29.4 12 Sur 25 Sur 0 -- -- 36
2019-06-18 15:00:00 29.9 13 Sudeste 28 Sudeste 0 -- -- 31
2019-06-18 14:00:00 30.5 10 Sudeste 24 Sudeste 0 -- -- 30
2019-06-18 13:00:00 29.7 15 Este 26 Este 0 -- -- 34
2019-06-18 12:00:00 28.9 10 Sudeste 22 Sudeste 0 -- -- 34
2019-06-18 11:00:00 28 9 Sudeste 19 Sudeste 0 -- -- 38
2019-06-18 10:00:00 26.4 8 Este 18 Este 0 -- -- 44
2019-06-18 09:00:00 23.8 8 Este 13 Este 0 -- -- 56
2019-06-18 08:00:00 17.4 0 Calma 5 Nordeste 0 -- -- 73
2019-06-18 07:00:00 10.3 3 Nordeste 5 Nordeste 0 -- -- 92
2019-06-18 06:00:00 10.1 3 Este 5 Este 0 -- -- 90
2019-06-18 05:00:00 10.3 0 Calma 4 Este 0 -- -- 89
2019-06-18 04:00:00 11.1 4 Este 5 Este 0 -- -- 88
2019-06-18 03:00:00 12 0 Calma 4 Nordeste 0 -- -- 86
2019-06-18 02:00:00 13.1 3 Nordeste 5 Este 0 -- -- 85
2019-06-18 01:00:00 14.2 3 Este 5 Este 0 -- -- 83
2019-06-18 00:00:00 15.3 3 Este 5 Este 0 -- -- 79
2019-06-17 23:00:00 17.1 3 Este 4 Este 0 -- -- 73
2019-06-17 22:00:00 19.9 3 Sudoeste 10 Sudoeste 0 -- -- 67
2019-06-17 21:00:00 22.6 8 Sudoeste 17 Sudoeste 0 -- -- 59
2019-06-17 20:00:00 25.1 11 Sudoeste 22 Sudoeste 0 -- -- 49
2019-06-17 19:00:00 26.6 12 Sudoeste 21 Sudoeste 0 -- -- 45
2019-06-17 18:00:00 27 11 Sudoeste 22 Sudoeste 0 -- -- 42
2019-06-17 17:00:00 27.5 12 Sudoeste 24 Oeste 0 -- -- 42
2019-06-17 16:00:00 27.6 13 Sudoeste 26 Sudoeste 0 -- -- 42
2019-06-17 15:00:00 27.2 16 Sudoeste 28 Sudoeste 0 -- -- 42
2019-06-17 14:00:00 27.7 16 Oeste 28 Sudoeste 0 -- -- 39
2019-06-17 13:00:00 28 15 Sudoeste 26 Sudoeste 0 -- -- 41
2019-06-17 12:00:00 28.6 13 Sudoeste 24 Sudoeste 0 -- -- 39
2019-06-17 11:00:00 28.7 4 Sur 11 Nordeste 0 -- -- 37
2019-06-17 10:00:00 26.1 4 Nordeste 10 Norte 0 -- -- 46
2019-06-17 09:00:00 21.4 3 Nordeste 9 Nordeste 0 -- -- 67
2019-06-17 08:00:00 15 3 Nordeste 7 Nordeste 0 -- -- 97
2019-06-17 07:00:00 12.6 3 Este 6 Nordeste 0 -- -- 96
2019-06-17 06:00:00 12.3 0 Calma 5 Este 0 -- -- 93
2019-06-17 05:00:00 12.6 4 Este 6 Este 0 -- -- 92
2019-06-17 04:00:00 13.4 3 Este 5 Este 0 -- -- 91
2019-06-17 03:00:00 14.3 4 Este 7 Este 0 -- -- 90
2019-06-17 02:00:00 14.9 3 Este 4 Este 0 -- -- 87
2019-06-17 01:00:00 16.4 0 Calma 5 Sur 0 -- -- 86
2019-06-17 00:00:00 17.5 2 Sur 6 Nordeste 0 -- -- 84
2019-06-16 23:00:00 18 0 Calma 8 Sur 0 -- -- 80
2019-06-16 22:00:00 20.1 5 Sudeste 17 Este 0 -- -- 74
2019-06-16 21:00:00 22 9 Sudeste 17 Sudeste 0 -- -- 68
2019-06-16 20:00:00 23.8 7 Este 23 Este 0 -- -- 55
2019-06-16 19:00:00 24.5 15 Este 28 Este 0 -- -- 51
2019-06-16 18:00:00 26.6 15 Este 30 Este 0 -- -- 46
2019-06-16 17:00:00 27.4 17 Este 32 Este 0 -- -- 45
2019-06-16 16:00:00 28.4 13 Este 30 Nordeste 0 -- -- 40
2019-06-16 15:00:00 28.3 14 Este 32 Nordeste 0 -- -- 44
2019-06-16 14:00:00 28.2 14 Nordeste 33 Norte 0 -- -- 46
2019-06-16 13:00:00 28.1 10 Norte 26 Nordeste 0 -- -- 47
2019-06-16 12:00:00 26.5 12 Norte 27 Norte 0 -- -- 52
2019-06-16 11:00:00 24.7 12 Norte 27 Norte 0 -- -- 58
2019-06-16 10:00:00 23.8 16 Nordeste 33 Norte 0 -- -- 58
2019-06-16 09:00:00 21.4 13 Nordeste 26 Nordeste 0 -- -- 69
2019-06-16 08:00:00 18.5 8 Nordeste 18 Nordeste 0 -- -- 85
2019-06-16 07:00:00 15.5 4 Nordeste 14 Nordeste 0 -- -- 94
2019-06-16 06:00:00 15.1 4 Nordeste 8 Nordeste 0 -- -- 92
2019-06-16 05:00:00 15.8 3 Nordeste 9 Nordeste 0 -- -- 91
2019-06-16 04:00:00 16.1 4 Nordeste 8 Norte 0 -- -- 90
2019-06-16 03:00:00 17.3 2 Nordeste 11 Nordeste 0 -- -- 88
2019-06-16 02:00:00 18.5 5 Norte 21 Nordeste 0 -- -- 87
2019-06-16 01:00:00 18.9 8 Norte 28 Nordeste 0 -- -- 87
2019-06-16 00:00:00 19.4 10 Norte 27 Norte 0 -- -- 87
2019-06-15 23:00:00 20 8 Nordeste 18 Norte 0 -- -- 81
2019-06-15 22:00:00 20.4 3 Nordeste 15 Este 0 -- -- 72
2019-06-15 21:00:00 22.3 10 Este 26 Este 0 -- -- 67
2019-06-15 20:00:00 24.8 14 Este 26 Este 0 -- -- 59
2019-06-15 19:00:00 26.1 15 Este 25 Sudeste 0 -- -- 55
2019-06-15 18:00:00 27.5 14 Este 26 Sudeste 0 -- -- 58
2019-06-15 17:00:00 28.1 13 Sudoeste 24 Sudoeste 0 -- -- 55
2019-06-15 16:00:00 28.2 13 Sudoeste 24 Sudoeste 0 -- -- 53
2019-06-15 15:00:00 28 13 Sudoeste 24 Sudoeste 0 -- -- 54
2019-06-15 14:00:00 26.6 12 Sudoeste 24 Sudoeste 0 -- -- 57
2019-06-15 13:00:00 26.1 12 Sudoeste 26 Oeste 0 -- -- 59
2019-06-15 12:00:00 25.4 14 Sudoeste 27 Sudoeste 0 -- -- 61
2019-06-15 11:00:00 24.2 15 Sudoeste 31 Sudoeste 0 -- -- 67
2019-06-15 10:00:00 22.7 18 Sudoeste 33 Sudoeste 0 -- -- 72
2019-06-15 09:00:00 21.7 18 Sudoeste 31 Sudoeste 0 -- -- 75
2019-06-15 08:00:00 20.3 10 Sudoeste 23 Sudoeste 0 -- -- 80
2019-06-15 07:00:00 19 7 Sudoeste 18 Sudoeste 0 -- -- 87
2019-06-15 06:00:00 17.8 9 Sudoeste 17 Sudoeste 0 -- -- 96
2019-06-15 05:00:00 15.6 4 Sudoeste 9 Sur 0 -- -- 97
2019-06-15 04:00:00 14.5 3 Sur 7 Sur 0 -- -- 95
2019-06-15 03:00:00 14.1 3 Sur 6 Este 0 -- -- 93
2019-06-15 02:00:00 15 4 Sudeste 5 Sudeste 0 -- -- 93
2019-06-15 01:00:00 16.4 4 Este 5 Este 0 -- -- 91
2019-06-15 00:00:00 18 3 Sur 6 Sur 0 -- -- 90
2019-06-14 23:00:00 19.5 4 Sudoeste 15 Sudoeste 0 -- -- 89
2019-06-14 22:00:00 20.3 7 Sudoeste 20 Sudoeste 0 -- -- 89
2019-06-14 21:00:00 21 12 Sudoeste 29 Sudoeste 0 -- -- 84
2019-06-14 20:00:00 22.1 14 Sudoeste 27 Oeste 0 -- -- 78
2019-06-14 19:00:00 24 18 Sudoeste 33 Sudoeste 0 -- -- 64
2019-06-14 18:00:00 25.3 18 Sudoeste 40 Sudoeste 0 -- -- 58
2019-06-14 17:00:00 24.7 23 Sudoeste 41 Sudoeste 0 -- -- 53
2019-06-14 16:00:00 24.9 26 Sudoeste 48 Sudoeste 0 -- -- 53
2019-06-14 15:00:00 25.1 24 Oeste 45 Oeste 0 -- -- 53
2019-06-14 14:00:00 24.7 25 Oeste 48 Sudoeste 0 -- -- 58
2019-06-14 13:00:00 21.9 25 Oeste 53 Oeste 0 -- -- 71
2019-06-14 12:00:00 22.5 25 Oeste 54 Oeste 0 -- -- 70
2019-06-14 11:00:00 21.9 25 Oeste 51 Oeste 0 -- -- 77
2019-06-14 10:00:00 21.4 26 Sudoeste 47 Sudoeste 0 -- -- 82
2019-06-14 09:00:00 22.8 18 Sudoeste 32 Sudoeste 0 -- -- 76
2019-06-14 08:00:00 21.5 8 Sudoeste 13 Sudoeste 0 -- -- 83
2019-06-14 07:00:00 20.2 6 Noroeste 13 Noroeste 0 -- -- 87
2019-06-14 06:00:00 20 6 Noroeste 19 Norte 0 -- -- 88
2019-06-14 05:00:00 19.8 6 Norte 18 Nordeste 0 -- -- 86
2019-06-14 04:00:00 20.5 8 Nordeste 20 Este 0 -- -- 83
2019-06-14 03:00:00 20.4 9 Nordeste 25 Norte 0 -- -- 80
2019-06-14 02:00:00 20.3 9 Nordeste 28 Norte 0 -- -- 80
2019-06-14 01:00:00 20.2 14 Norte 33 Nordeste 0 -- -- 83
2019-06-14 00:00:00 20.3 12 Nordeste 25 Nordeste 0 -- -- 85
2019-06-13 23:00:00 20.3 10 Nordeste 26 Nordeste 0 -- -- 85
2019-06-13 22:00:00 20.6 7 Nordeste 22 Nordeste 0 -- -- 84
2019-06-13 21:00:00 21 12 Nordeste 28 Nordeste 0 -- -- 81
2019-06-13 20:00:00 22.1 13 Nordeste 31 Nordeste 0 -- -- 73
2019-06-13 19:00:00 23.8 16 Nordeste 37 Nordeste 0 -- -- 66
2019-06-13 18:00:00 24.6 19 Nordeste 41 Este 0 -- -- 62
2019-06-13 17:00:00 25.5 22 Este 42 Nordeste 0 -- -- 57
2019-06-13 16:00:00 26.4 22 Este 40 Este 0 -- -- 47
2019-06-13 15:00:00 25.6 22 Nordeste 42 Nordeste 0 -- -- 46
2019-06-13 14:00:00 26.3 21 Nordeste 39 Nordeste 0 -- -- 43
2019-06-13 13:00:00 26 15 Nordeste 37 Este 0 -- -- 43
2019-06-13 12:00:00 25.2 17 Nordeste 37 Este 0 -- -- 46
2019-06-13 11:00:00 23.7 17 Nordeste 33 Nordeste 0 -- -- 58
2019-06-13 10:00:00 21.1 14 Nordeste 38 Este 0 -- -- 67
2019-06-13 09:00:00 20.2 14 Nordeste 29 Este 0 -- -- 76
2019-06-13 08:00:00 17.7 6 Norte 22 Nordeste 0 -- -- 86
2019-06-13 07:00:00 14.7 7 Nordeste 17 Nordeste 0 -- -- 93
2019-06-13 06:00:00 14.5 5 Nordeste 14 Norte 0 -- -- 94
2019-06-13 05:00:00 13.8 9 Nordeste 15 Nordeste 0 -- -- 95
2019-06-13 04:00:00 11.5 3 Nordeste 5 Este 0 -- -- 91
2019-06-13 03:00:00 12.1 3 Nordeste 7 Nordeste 0 -- -- 90
2019-06-13 02:00:00 13 2 Nordeste 6 Nordeste 0 -- -- 89
2019-06-13 01:00:00 14.3 2 Nordeste 5 Nordeste 0 -- -- 86
2019-06-13 00:00:00 16 3 Nordeste 9 Nordeste 0 -- -- 85
2019-06-12 23:00:00 16.7 3 Nordeste 14 Este 0 -- -- 81
2019-06-12 22:00:00 17.6 6 Este 23 Este 0 -- -- 77
2019-06-12 21:00:00 19 12 Este 24 Este 0 -- -- 71
2019-06-12 20:00:00 21 14 Este 30 Este 0 -- -- 61
2019-06-12 19:00:00 22.2 17 Este 29 Este 0 -- -- 58
2019-06-12 18:00:00 22.4 16 Este 35 Este 0 -- -- 57
2019-06-12 17:00:00 22.8 17 Este 31 Sudeste 0 -- -- 55
2019-06-12 16:00:00 23.6 19 Este 30 Este 0 -- -- 53
2019-06-12 15:00:00 22.8 11 Este 25 Este 0 -- -- 56
2019-06-12 14:00:00 21.6 13 Este 24 Este 0 -- -- 59
2019-06-12 13:00:00 22.1 13 Este 25 Este 0 -- -- 56
2019-06-12 12:00:00 23.1 8 Nordeste 19 Nordeste 0 -- -- 54
2019-06-12 11:00:00 21.7 8 Nordeste 17 Nordeste 0 -- -- 60
2019-06-12 10:00:00 18.4 9 Nordeste 19 Nordeste 0 -- -- 72
2019-06-12 09:00:00 18.2 7 Nordeste 21 Este 0 -- -- 71
2019-06-12 08:00:00 17.6 8 Nordeste 21 Nordeste 0 -- -- 73
2019-06-12 07:00:00 16.4 6 Nordeste 14 Nordeste 0 -- -- 77
2019-06-12 06:00:00 16.2 6 Nordeste 13 Nordeste 0 -- -- 78
2019-06-12 05:00:00 15.8 5 Nordeste 12 Nordeste 0 -- -- 80
2019-06-12 04:00:00 15.7 8 Nordeste 22 Nordeste 0 -- -- 82
2019-06-12 03:00:00 15.7 11 Nordeste 30 Nordeste 0 -- -- 83
2019-06-12 02:00:00 15.8 12 Nordeste 29 Nordeste 0 -- -- 85
2019-06-12 01:00:00 15.9 14 Nordeste 35 Nordeste 0 -- -- 86
2019-06-12 00:00:00 16.6 14 Norte 37 Nordeste 0 -- -- 84
2019-06-11 23:00:00 18 15 Norte 37 Norte 0 -- -- 83
2019-06-11 22:00:00 19 13 Norte 32 Norte 0 -- -- 82
2019-06-11 21:00:00 21 8 Noroeste 20 Norte 0 -- -- 73
2019-06-11 20:00:00 23.4 8 Sudoeste 15 Sudoeste 0 -- -- 61
2019-06-11 19:00:00 24.7 8 Sudoeste 19 Sudoeste 0 -- -- 57
2019-06-11 18:00:00 24.7 7 Sudoeste 23 Sudoeste 0 -- -- 55
2019-06-11 17:00:00 25.3 9 Sudoeste 21 Sudoeste 0 -- -- 55
2019-06-11 16:00:00 24.1 9 Sur 27 Este 0 -- -- 60
2019-06-11 15:00:00 24.3 12 Sudeste 24 Sur 0 -- -- 60
2019-06-11 14:00:00 22.8 11 Sur 24 Sudeste 0 -- -- 62
2019-06-11 13:00:00 22.4 11 Sudeste 23 Este 0 -- -- 65
2019-06-11 12:00:00 22.4 13 Sudeste 24 Este 0 -- -- 66
2019-06-11 11:00:00 22.1 12 Sudeste 26 Este 0 -- -- 65
2019-06-11 10:00:00 22.5 14 Este 25 Este 0 -- -- 65
2019-06-11 09:00:00 21.3 14 Este 26 Este 0 -- -- 70
2019-06-11 08:00:00 17.3 3 Norte 5 Norte 0 -- -- 92
2019-06-11 07:00:00 12.7 0 Calma 4 Nordeste 0 -- -- 93
2019-06-11 06:00:00 13.1 3 Nordeste 5 Este 0 -- -- 92
2019-06-11 05:00:00 14 3 Este 5 Este 0 -- -- 92
2019-06-11 04:00:00 14.3 4 Este -- -- 0 -- -- 90
2019-06-11 03:00:00 15 0 Calma 4 Noroeste 0 -- -- 88
2019-06-11 02:00:00 16.5 0 Calma 4 Este 0 -- -- 85
2019-06-11 01:00:00 18.2 0 Calma 11 Sudeste 0 -- -- 85
2019-06-11 00:00:00 18.5 5 Este 13 Este 0 -- -- 77
2019-06-10 23:00:00 19.7 7 Este 17 Este 0 -- -- 68
2019-06-10 22:00:00 20.9 7 Este 24 Este 0 -- -- 62
2019-06-10 21:00:00 21.5 14 Este 27 Sudeste 0 -- -- 62
2019-06-10 20:00:00 24.4 12 Sudeste 23 Oeste 0 -- -- 52
2019-06-10 19:00:00 24.7 13 Sudoeste 24 Sudoeste 0 -- -- 56
2019-06-10 18:00:00 25.4 12 Sudoeste 23 Oeste 0 -- -- 58
2019-06-10 17:00:00 25.2 14 Oeste 27 Sudoeste 0 -- -- 61
2019-06-10 16:00:00 26 17 Sudoeste 31 Sudoeste 0 -- -- 57
2019-06-10 15:00:00 26.7 19 Sudoeste 33 Sudoeste 0 -- -- 56
2019-06-10 14:00:00 28.8 8 Norte 25 Norte 0 -- -- 45
2019-06-10 13:00:00 26.9 11 Nordeste 28 Este 0 -- -- 51
2019-06-10 12:00:00 26.1 13 Nordeste 31 Norte 0 -- -- 56
2019-06-10 11:00:00 24.4 18 Nordeste 35 Norte 0 -- -- 63
2019-06-10 10:00:00 23.5 17 Norte 36 Norte 0 -- -- 64
2019-06-10 09:00:00 22.1 18 Nordeste 37 Norte 0 -- -- 68
2019-06-10 08:00:00 19.6 11 Nordeste 22 Norte 0 -- -- 83
2019-06-10 07:00:00 16.3 5 Nordeste 11 Nordeste 0 -- -- 95
2019-06-10 06:00:00 14.6 3 Nordeste 5 Nordeste 0 -- -- 92
2019-06-10 05:00:00 15.7 2 Nordeste 4 Norte 0 -- -- 92
2019-06-10 04:00:00 16.7 0 Calma 5 Este 0 -- -- 92
2019-06-10 03:00:00 16.4 3 Sudeste 6 Oeste 0 -- -- 91
2019-06-10 02:00:00 17.2 0 Calma 9 Nordeste 0 -- -- 89
2019-06-10 01:00:00 18.4 4 Este 8 Sudeste 0 -- -- 88
2019-06-10 00:00:00 19 4 Sudeste 9 Sudeste 0 -- -- 87
2019-06-09 23:00:00 19.6 5 Sudeste 12 Sur 0 -- -- 86
2019-06-09 22:00:00 20.7 5 Sudeste 17 Sudeste 0 -- -- 80
2019-06-09 21:00:00 21.6 7 Sudeste 14 Sur 0 -- -- 76
2019-06-09 20:00:00 23.3 8 Sur 18 Sudeste 0 -- -- 69
2019-06-09 19:00:00 24.6 11 Sur 27 Sudoeste 0 -- -- 63
2019-06-09 18:00:00 26 13 Sur 24 Sudoeste 0 -- -- 57
2019-06-09 17:00:00 27.7 12 Sur 27 Sudoeste 0 -- -- 52
2019-06-09 16:00:00 27.4 15 Sudoeste 27 Sudoeste 0 -- -- 54
2019-06-09 15:00:00 28.6 14 Sudoeste 26 Oeste 0 -- -- 47
2019-06-09 14:00:00 27.8 13 Sudoeste 30 Sudoeste 0 -- -- 49
2019-06-09 13:00:00 27.3 19 Sudoeste 33 Oeste 0 -- -- 56
2019-06-09 12:00:00 27.8 8 Sudoeste 22 Sudoeste 0 -- -- 56
2019-06-09 11:00:00 26.9 6 Oeste 16 Oeste 0 -- -- 59
2019-06-09 10:00:00 24.6 6 Norte 14 Este 0 -- -- 67
2019-06-09 09:00:00 22.3 5 Norte 16 Nordeste 0 -- -- 73
2019-06-09 08:00:00 19.7 5 Nordeste 14 Nordeste 0 -- -- 80
2019-06-09 07:00:00 18.3 4 Norte 14 Norte 0 -- -- 82
2019-06-09 06:00:00 17.6 5 Norte 15 Norte 0 -- -- 82
2019-06-09 05:00:00 17.4 4 Nordeste 17 Nordeste 0 -- -- 80
2019-06-09 04:00:00 17.6 9 Nordeste 21 Nordeste 0 -- -- 80
2019-06-09 03:00:00 18 9 Nordeste 20 Nordeste 0 -- -- 77
2019-06-09 02:00:00 17.8 9 Nordeste 27 Nordeste 0 -- -- 78
2019-06-09 01:00:00 18 11 Nordeste 28 Nordeste 0 -- -- 76
2019-06-09 00:00:00 18.4 12 Nordeste 31 Nordeste 0 -- -- 72
2019-06-08 23:00:00 18.6 9 Nordeste 20 Nordeste 0 -- -- 70
2019-06-08 22:00:00 19.3 8 Norte 19 Norte 0 -- -- 63
2019-06-08 21:00:00 21.8 8 Norte 30 Nordeste 0 -- -- 53
2019-06-08 20:00:00 24.3 12 Nordeste 30 Nordeste 0 -- -- 40
2019-06-08 19:00:00 25.5 19 Nordeste 36 Nordeste 0 -- -- 37
2019-06-08 18:00:00 26.5 18 Nordeste 35 Nordeste 0 -- -- 36
2019-06-08 17:00:00 26.8 18 Nordeste 40 Este 0 -- -- 33
2019-06-08 16:00:00 27.2 21 Nordeste 36 Nordeste 0 -- -- 33
2019-06-08 15:00:00 26.4 23 Nordeste 44 Este 0 -- -- 32
2019-06-08 14:00:00 26.2 19 Nordeste 41 Nordeste 0 -- -- 35
2019-06-08 13:00:00 25 23 Nordeste 43 Nordeste 0 -- -- 40
2019-06-08 12:00:00 24.3 19 Nordeste 45 Nordeste 0 -- -- 41
2019-06-08 11:00:00 23.5 19 Nordeste 42 Norte 0 -- -- 47
2019-06-08 10:00:00 21.2 15 Nordeste 35 Este 0 -- -- 59
2019-06-08 09:00:00 20 18 Nordeste 38 Nordeste 0 -- -- 66
2019-06-08 08:00:00 19 13 Nordeste 23 Nordeste 0 -- -- 76
2019-06-08 07:00:00 17.9 9 Nordeste 20 Nordeste 0 -- -- 78
2019-06-08 06:00:00 17.4 6 Nordeste 27 Nordeste 0 -- -- 86
2019-06-08 05:00:00 17.8 9 Nordeste 24 Nordeste 0 -- -- 90
2019-06-08 04:00:00 17.6 8 Nordeste 20 Nordeste 0 -- -- 92
2019-06-08 03:00:00 16.5 7 Nordeste 16 Nordeste 0 -- -- 91
2019-06-08 02:00:00 13.7 0 Calma 7 Este 0 -- -- 86
2019-06-08 01:00:00 14.3 2 Norte 4 Noroeste 0 -- -- 84
2019-06-08 00:00:00 15.6 3 Noroeste 5 Sudeste 0 -- -- 78
2019-06-07 23:00:00 17.9 0 Calma 6 Este 0 -- -- 71
2019-06-07 22:00:00 20.4 7 Este 17 Este 0 -- -- 65
2019-06-07 21:00:00 22.3 10 Este 18 Este 0 -- -- 57
2019-06-07 20:00:00 24.9 12 Sudeste 23 Sur 0 -- -- 57
2019-06-07 19:00:00 26.5 10 Sudoeste 23 Sudoeste 0 -- -- 53
2019-06-07 18:00:00 27.9 10 Sudoeste 28 Sudoeste 0 -- -- 45
2019-06-07 17:00:00 26.7 17 Sudoeste 30 Sudoeste 0 -- -- 50
2019-06-07 16:00:00 27.1 17 Sudoeste 33 Sudoeste 0 -- -- 47
2019-06-07 15:00:00 27 19 Sudoeste 37 Sudoeste 0 -- -- 49
2019-06-07 14:00:00 26.6 19 Sudoeste 36 Sudoeste 0 -- -- 52
2019-06-07 13:00:00 26.1 18 Sudoeste 34 Sudoeste 0 -- -- 57
2019-06-07 12:00:00 25.1 16 Sudoeste 30 Sudoeste 0 -- -- 63
2019-06-07 11:00:00 24.3 17 Sudoeste 28 Sudoeste 0 -- -- 65
2019-06-07 10:00:00 23.8 13 Oeste 24 Oeste 0 -- -- 65
2019-06-07 09:00:00 21 3 Oeste 10 Norte 0 -- -- 83
2019-06-07 08:00:00 18.4 5 Este 10 Este 0 -- -- 96
2019-06-07 07:00:00 15.2 3 Este 7 Este 0 -- -- 97
2019-06-07 06:00:00 15.5 0 Calma 10 Norte 0 -- -- 96
2019-06-07 05:00:00 14.7 5 Este 6 Este 0 -- -- 95
2019-06-07 04:00:00 14 3 Nordeste 5 Este 0 -- -- 93
2019-06-07 03:00:00 14.5 3 Nordeste 4 Nordeste 0 -- -- 92
2019-06-07 02:00:00 15.2 3 Este 4 Este 0 -- -- 90
2019-06-07 01:00:00 16.3 2 Norte 4 Este 0 -- -- 88
2019-06-07 00:00:00 18.3 2 Este 10 Este 0 -- -- 89
2019-06-06 23:00:00 19.3 6 Este 17 Este 0 -- -- 86
2019-06-06 22:00:00 19.7 9 Sudeste 20 Este 0 -- -- 84
2019-06-06 21:00:00 20.4 12 Sudeste 24 Sudeste 0 -- -- 78
2019-06-06 20:00:00 22 14 Sudeste 29 Este 0 -- -- 71
2019-06-06 19:00:00 23.1 17 Este 34 Este 0 -- -- 67
2019-06-06 18:00:00 23.8 20 Sudeste 33 Sudeste 0 -- -- 63
2019-06-06 17:00:00 24.4 20 Este 35 Este 0 -- -- 63
2019-06-06 16:00:00 25.5 16 Sudeste 31 Este 0 -- -- 56
2019-06-06 15:00:00 25.7 18 Este 31 Este 0 -- -- 53
2019-06-06 14:00:00 25.4 20 Este 30 Este 0 -- -- 52
2019-06-06 13:00:00 24.9 16 Este 29 Este 0 -- -- 54
2019-06-06 12:00:00 24.7 13 Sudeste 29 Este 0 -- -- 50
2019-06-06 11:00:00 23.6 12 Este 21 Este 0 -- -- 58
2019-06-06 10:00:00 22.5 14 Este 23 Este 0 -- -- 59
2019-06-06 09:00:00 20.9 11 Este 24 Este 0 -- -- 67
2019-06-06 08:00:00 17.6 4 Nordeste 17 Nordeste 0 -- -- 86
2019-06-06 07:00:00 12.2 0 Calma 4 Este 0 -- -- 87
2019-06-06 06:00:00 12.2 0 Calma 5 Norte 0 -- -- 85
2019-06-06 05:00:00 13.1 2 Norte 9 Nordeste 0 -- -- 81
2019-06-06 04:00:00 13.7 2 Este 9 Norte 0 -- -- 82
2019-06-06 03:00:00 14.4 0 Calma 6 Este 0 -- -- 83
2019-06-06 02:00:00 14.9 0 Calma 6 Este 0 -- -- 82
2019-06-06 01:00:00 14.4 4 Este 6 Este 0 -- -- 82
2019-06-06 00:00:00 15.1 3 Este 5 Sudeste 0 -- -- 77
2019-06-05 23:00:00 16.9 2 Nordeste 6 Sudoeste 0 -- -- 73
2019-06-05 22:00:00 19.4 2 Sudoeste 16 Sudoeste 0 -- -- 64
2019-06-05 21:00:00 21.7 9 Sudoeste 27 Oeste 0 -- -- 53
2019-06-05 20:00:00 24.3 16 Oeste 35 Oeste 0 -- -- 45
2019-06-05 19:00:00 24.3 17 Sudoeste 42 Sudoeste 0 -- -- 49
2019-06-05 18:00:00 26.1 24 Oeste 49 Sudoeste 0 -- -- 38
2019-06-05 17:00:00 27.2 23 Oeste 44 Oeste 0 -- -- 37
2019-06-05 16:00:00 26.7 23 Sudoeste 40 Sudoeste 0 -- -- 56
2019-06-05 15:00:00 25.9 20 Sudoeste 39 Sudoeste 0 -- -- 64
2019-06-05 14:00:00 25.5 21 Sudoeste 36 Sudoeste 0 -- -- 64
2019-06-05 13:00:00 24.9 19 Sudoeste 40 Oeste 0 -- -- 64
2019-06-05 12:00:00 23.3 16 Sudoeste 32 Sudoeste 0 -- -- 72
2019-06-05 11:00:00 24 17 Sudoeste 32 Sudoeste 0 -- -- 64
2019-06-05 10:00:00 23.7 11 Sur 22 Sur 0 -- -- 69
2019-06-05 09:00:00 21 8 Sur 14 Sudeste 0 -- -- 85
2019-06-05 08:00:00 16.6 0 Calma 4 Este 0 -- -- 98
2019-06-05 07:00:00 13.3 3 Este 5 Este 0 -- -- 96
2019-06-05 06:00:00 13.7 3 Este 5 Este 0 -- -- 95
2019-06-05 05:00:00 14.4 3 Este 4 Oeste 0 -- -- 95
2019-06-05 04:00:00 14.4 0 Calma 6 Este 0 -- -- 94
2019-06-05 03:00:00 14.1 3 Este 5 Este 0 -- -- 95
2019-06-05 02:00:00 12.9 4 Este 5 Este 0 -- -- 92
2019-06-05 01:00:00 13.3 0 Calma 3 Norte 0 -- -- 89
2019-06-05 00:00:00 14.5 0 Calma 3 Sur 0 -- -- 87
2019-06-04 23:00:00 16.5 0 Calma 7 Este 0 -- -- 81
2019-06-04 22:00:00 19.4 4 Este 14 Este 0 -- -- 77
2019-06-04 21:00:00 21.9 6 Sudeste 17 Sudeste 0 -- -- 66
2019-06-04 20:00:00 25 10 Sudeste 21 Sudeste 0 -- -- 51
2019-06-04 19:00:00 26.5 10 Sudeste 26 Este 0 -- -- 46
2019-06-04 18:00:00 27.2 14 Sudeste 29 Este 0 -- -- 43
2019-06-04 17:00:00 27.8 20 Sudeste 32 Sudeste 0 -- -- 38
2019-06-04 16:00:00 28.4 18 Este 29 Este 0 -- -- 37
2019-06-04 15:00:00 28.4 16 Sudeste 28 Sudeste 0 -- -- 35
2019-06-04 14:00:00 28.2 14 Sudeste 30 Sur 0 -- -- 35
2019-06-04 13:00:00 27.7 16 Sur 28 Sur 0 -- -- 36
2019-06-04 12:00:00 27.5 14 Sudeste 27 Sudeste 0 -- -- 38
2019-06-04 11:00:00 26.8 13 Sudeste 23 Sudeste 0 -- -- 40
2019-06-04 10:00:00 25.2 9 Sudeste 18 Este 0 -- -- 44
2019-06-04 09:00:00 21.9 6 Este 13 Sudeste 0 -- -- 62
2019-06-04 08:00:00 16.5 4 Norte 8 Nordeste 0 -- -- 88
2019-06-04 07:00:00 10.3 2 Este 4 Nordeste 0 -- -- 93
2019-06-04 06:00:00 10.5 4 Este 5 Este 0 -- -- 92
2019-06-04 05:00:00 10.8 5 Este 6 Este 0 -- -- 92
2019-06-04 04:00:00 11.2 3 Este 6 Este 0 -- -- 91
2019-06-04 03:00:00 10.7 3 Nordeste 4 Este 0 -- -- 87
2019-06-04 02:00:00 11.1 2 Este 4 Este 0 -- -- 85
2019-06-04 01:00:00 11.9 2 Este 3 Este 0 -- -- 82
2019-06-04 00:00:00 13.1 2 Nordeste 5 Este 0 -- -- 78
2019-06-03 23:00:00 14.8 3 Este 5 Este 0 -- -- 72
2019-06-03 22:00:00 17.6 2 Nordeste 8 Sudeste 0 -- -- 61
2019-06-03 21:00:00 21.7 4 Sudeste 14 Sur 0 -- -- 53
2019-06-03 20:00:00 24.8 8 Sur 21 Sudeste 0 -- -- 42
2019-06-03 19:00:00 25.9 9 Sudeste 21 Sudeste 0 -- -- 38
2019-06-03 18:00:00 26.7 13 Sudeste 26 Sudeste 0 -- -- 35
2019-06-03 17:00:00 27.4 13 Sudeste 26 Este 0 -- -- 32
2019-06-03 16:00:00 28 11 Sudeste 27 Sudeste 0 -- -- 33
2019-06-03 15:00:00 28.1 14 Sudeste 27 Sudeste 0 -- -- 33
2019-06-03 14:00:00 28.6 14 Sudeste 25 Este 0 -- -- 32
2019-06-03 13:00:00 28.7 12 Sudeste 25 Este 0 -- -- 30
2019-06-03 12:00:00 28.1 9 Sudeste 20 Este 0 -- -- 32
2019-06-03 11:00:00 27.1 8 Sudeste 17 Este 0 -- -- 37
2019-06-03 10:00:00 24.9 6 Sur 14 Sur 0 -- -- 44
2019-06-03 09:00:00 21.5 5 Este 12 Este 0 -- -- 58
2019-06-03 08:00:00 15.7 3 Nordeste 6 Nordeste 0 -- -- 76
2019-06-03 07:00:00 8.9 3 Este 4 Nordeste 0 -- -- 93
2019-06-03 06:00:00 9 3 Este 6 Este 0 -- -- 92
2019-06-03 05:00:00 9.6 3 Nordeste 5 Este 0 -- -- 91
2019-06-03 04:00:00 10.6 3 Este 5 Este 0 -- -- 91
2019-06-03 03:00:00 10.9 5 Este 6 Este 0 -- -- 91
2019-06-03 02:00:00 11.1 2 Este 5 Este 0 -- -- 87
2019-06-03 01:00:00 12.1 3 Este 4 Este 0 -- -- 85
2019-06-03 00:00:00 13.2 0 Calma 4 Nordeste 0 -- -- 82
2019-06-02 23:00:00 15.1 0 Calma 4 Este 0 -- -- 78
2019-06-02 22:00:00 18 0 Calma 8 Sudeste 0 -- -- 69
2019-06-02 21:00:00 21.1 6 Este 15 Sudeste 0 -- -- 56
2019-06-02 20:00:00 23.8 10 Sudeste 22 Sudeste 0 -- -- 43
2019-06-02 19:00:00 25.3 12 Sudeste 23 Sudeste 0 -- -- 35
2019-06-02 18:00:00 27 10 Sudeste 23 Sudeste 0 -- -- 34
2019-06-02 17:00:00 27.6 12 Sudeste 24 Sudeste 0 -- -- 33
2019-06-02 16:00:00 27.7 13 Sudeste 25 Este 0 -- -- 29
2019-06-02 15:00:00 28.1 12 Este 24 Sur 0 -- -- 31
2019-06-02 14:00:00 27.5 10 Sudeste 23 Este 0 -- -- 35
2019-06-02 13:00:00 26.8 13 Sudeste 25 Este 0 -- -- 40
2019-06-02 12:00:00 26.7 8 Sudeste 22 Este 0 -- -- 38
2019-06-02 11:00:00 25.5 9 Este 18 Nordeste 0 -- -- 46
2019-06-02 10:00:00 23.7 10 Este 16 Este 0 -- -- 55
2019-06-02 09:00:00 21.6 7 Este 12 Este 0 -- -- 64
2019-06-02 08:00:00 15.1 0 Calma 5 Este 0 -- -- 91
2019-06-02 07:00:00 9.3 3 Este 5 Este 0 -- -- 95
2019-06-02 06:00:00 8.9 3 Este 4 Nordeste 0 -- -- 93
2019-06-02 05:00:00 9.6 4 Este 5 Este 0 -- -- 93
2019-06-02 04:00:00 10.2 3 Este 6 Este 0 -- -- 92
2019-06-02 03:00:00 10.5 2 Este 5 Este 0 -- -- 90
2019-06-02 02:00:00 11 4 Este 5 Este 0 -- -- 88
2019-06-02 01:00:00 11.9 3 Este 4 Este 0 -- -- 86
2019-06-02 00:00:00 13.1 0 Calma 4 Este 0 -- -- 83
2019-06-01 23:00:00 14.6 3 Sudeste 7 Sudeste 0 -- -- 75
2019-06-01 22:00:00 17.3 2 Este 6 Sur 0 -- -- 65
2019-06-01 21:00:00 21.4 5 Sur 14 Sur 0 -- -- 55
2019-06-01 20:00:00 24.2 7 Sudeste 14 Sudeste 0 -- -- 44
2019-06-01 19:00:00 24.9 10 Sudeste 17 Sudeste 0 -- -- 44
2019-06-01 18:00:00 25.6 9 Sur 22 Sur 0 -- -- 41
2019-06-01 17:00:00 26.1 12 Sudeste 24 Sudeste 0 -- -- 42
2019-06-01 16:00:00 26.8 10 Sudeste 23 Este 0 -- -- 38
2019-06-01 15:00:00 26.5 10 Sur 26 Sudeste 0 -- -- 40
2019-06-01 14:00:00 26.6 13 Sudeste 28 Sudeste 0 -- -- 38
2019-06-01 13:00:00 26.6 11 Sur 25 Oeste 0 -- -- 45
2019-06-01 12:00:00 26.3 7 Sudeste 14 Sur 0 -- -- 42
2019-06-01 11:00:00 25 7 Este 15 Sudeste 0 -- -- 43
2019-06-01 10:00:00 24 4 Sudoeste 10 Nordeste 0 -- -- 46
2019-06-01 09:00:00 20.1 2 Nordeste 6 Nordeste 0 -- -- 63
2019-06-01 08:00:00 15.3 3 Nordeste 6 Nordeste 0 -- -- 89
2019-06-01 07:00:00 9.8 3 Nordeste 8 Este 0 -- -- 95
2019-06-01 06:00:00 8.6 2 Nordeste 6 Este 0 -- -- 93
2019-06-01 05:00:00 9.3 3 Este 5 Este 0 -- -- 92
2019-06-01 04:00:00 9.5 3 Nordeste 5 Nordeste 0 -- -- 91
2019-06-01 03:00:00 10.2 2 Nordeste 4 Este 0 -- -- 90
2019-06-01 02:00:00 11 3 Nordeste 5 Este 0 -- -- 89
2019-06-01 01:00:00 12.1 3 Este 5 Este 0 -- -- 88
2019-06-01 00:00:00 13.1 -- -- -- -- 0 -- -- 84
2019-05-31 23:00:00 14.6 2 Este 3 Este 0 -- -- 78
2019-05-31 22:00:00 17.3 2 Sur 6 Sudoeste 0 -- -- 71
2019-05-31 21:00:00 20.1 4 Sudoeste 13 Sudoeste 0 -- -- 63
2019-05-31 20:00:00 22.2 9 Sudoeste 19 Sudoeste 0 -- -- 60
2019-05-31 19:00:00 23.3 10 Sudoeste 21 Sudoeste 0 -- -- 55
2019-05-31 18:00:00 23 10 Sudoeste 23 Oeste 0 -- -- 56
2019-05-31 17:00:00 23.4 12 Sudoeste 26 Sudoeste 0 -- -- 58
2019-05-31 16:00:00 24.7 13 Sudoeste 27 Sudoeste 0 -- -- 52
2019-05-31 15:00:00 24.4 10 Sudeste 30 Sur 0 -- -- 50
2019-05-31 14:00:00 25.6 8 Sudeste 24 Sudeste 0 -- -- 47
2019-05-31 13:00:00 25.3 12 Sudeste 25 Este 0 -- -- 48
2019-05-31 12:00:00 24.6 10 Sur 29 Sudeste 0 -- -- 49
2019-05-31 11:00:00 24.8 10 Este 19 Nordeste 0 -- -- 41
2019-05-31 10:00:00 22.9 6 Nordeste 16 Nordeste 0 -- -- 44
2019-05-31 09:00:00 19.5 2 Norte 5 Oeste 0 -- -- 66
2019-05-31 08:00:00 14 2 Norte 5 Nordeste 0 -- -- 96
2019-05-31 07:00:00 9.1 2 Nordeste 6 Este 0 -- -- 97
2019-05-31 06:00:00 8.4 3 Este 4 Este 0 -- -- 95
2019-05-31 05:00:00 9 3 Este 5 Este 0 -- -- 94
2019-05-31 04:00:00 9.7 3 Este 6 Este 0 -- -- 94
2019-05-31 03:00:00 10.5 3 Nordeste 5 Este 0 -- -- 92
2019-05-31 02:00:00 11.3 3 Este 5 Este 0 -- -- 92
2019-05-31 01:00:00 12 3 Este 5 Este 0 -- -- 90
2019-05-31 00:00:00 13.1 2 Este 5 Este 0 -- -- 86
2019-05-30 23:00:00 15 0 Calma 5 Sudoeste 0 -- -- 82
2019-05-30 22:00:00 17.2 4 Sudoeste 16 Oeste 0 -- -- 79
2019-05-30 21:00:00 18.7 10 Sudoeste 21 Oeste 0 -- -- 72
2019-05-30 20:00:00 20.5 15 Sudoeste 30 Sudoeste 0 -- -- 60
2019-05-30 19:00:00 21.5 16 Sudoeste 34 Sudoeste 0 -- -- 52
2019-05-30 18:00:00 22.5 18 Sudoeste 38 Sudoeste 0 -- -- 43
2019-05-30 17:00:00 23 18 Sudoeste 31 Sudoeste 0 -- -- 40
2019-05-30 16:00:00 22.3 15 Sudoeste 31 Sudoeste 0 -- -- 42
2019-05-30 15:00:00 22.3 15 Sudoeste 29 Sudoeste 0 -- -- 41
2019-05-30 14:00:00 21.3 14 Sudoeste 31 Sudoeste 0 -- -- 44
2019-05-30 13:00:00 22.2 15 Sudoeste 28 Oeste 0 -- -- 46
2019-05-30 12:00:00 23.3 15 Sudoeste 28 Oeste 0 -- -- 47
2019-05-30 11:00:00 22.9 7 Oeste 18 Noroeste 0 -- -- 46
2019-05-30 10:00:00 21.5 8 Sudoeste 17 Oeste 0 -- -- 55
2019-05-30 09:00:00 18.7 9 Oeste 16 Oeste 0 -- -- 74
2019-05-30 08:00:00 14.2 3 Sudoeste 5 Oeste 0 -- -- 97
2019-05-30 07:00:00 9 3 Este 5 Este 0 -- -- 96
2019-05-30 06:00:00 8.8 4 Este 5 Este 0 -- -- 95
2019-05-30 05:00:00 9 3 Este 6 Este 0 -- -- 95
2019-05-30 04:00:00 9.1 4 Este 6 Este 0 -- -- 94
2019-05-30 03:00:00 9 4 Este 5 Este 0 -- -- 92
2019-05-30 02:00:00 9.5 2 Este 4 Este 0 -- -- 89
2019-05-30 01:00:00 10.5 4 Este 4 Este 0 -- -- 88
2019-05-30 00:00:00 11.6 3 Este 4 Nordeste 0 -- -- 86
2019-05-29 23:00:00 12.7 3 Este 4 Este 0 -- -- 81
2019-05-29 22:00:00 15.1 0 Calma 7 Sudoeste 0 -- -- 73
2019-05-29 21:00:00 17.8 4 Sudoeste 19 Sudoeste 0 -- -- 65
2019-05-29 20:00:00 19.9 10 Sudoeste 20 Sudoeste 0 -- -- 57
2019-05-29 19:00:00 21 11 Sudoeste 27 Sudoeste 0 -- -- 53
2019-05-29 18:00:00 21.7 15 Sudoeste 26 Sudoeste 0 -- -- 47
2019-05-29 17:00:00 21.6 12 Sudoeste 23 Sudeste 0 -- -- 48
2019-05-29 16:00:00 22.9 11 Sudeste 38 Oeste 0 -- -- 42
2019-05-29 15:00:00 21.7 9 Sudeste 22 Sudeste 0 -- -- 46
2019-05-29 14:00:00 21.4 9 Este 22 Sudeste 0 -- -- 49
2019-05-29 13:00:00 21 7 Sur 22 Sudeste 0 -- -- 53
2019-05-29 12:00:00 21.3 14 Este 27 Este 0 -- -- 59
2019-05-29 11:00:00 19 5 Sudeste 13 Sudeste 0 -- -- 64
2019-05-29 10:00:00 17.3 4 Sudeste 9 Este 0.2 -- -- 81
2019-05-29 09:00:00 16.6 4 Nordeste 12 Nordeste 0 -- -- 80
2019-05-29 08:00:00 15.8 2 Norte 8 Nordeste 0 -- -- 87
2019-05-29 07:00:00 13.6 0 Calma 5 Nordeste 0 -- -- 90
2019-05-29 06:00:00 14.8 0 Calma 4 Este 0 -- -- 89
2019-05-29 05:00:00 14.8 2 Este 3 Este 0 -- -- 90
2019-05-29 04:00:00 14.5 2 Este 6 Oeste 0 -- -- 90
2019-05-29 03:00:00 14.1 0 Calma 4 Oeste 0 -- -- 91
2019-05-29 02:00:00 13.5 0 Calma 5 Este 0 -- -- 88
2019-05-29 01:00:00 14.8 0 Calma 5 Nordeste 0 -- -- 82
2019-05-29 00:00:00 16.8 3 Nordeste 7 Nordeste 0 -- -- 77
2019-05-28 23:00:00 16.6 4 Nordeste 17 Nordeste 0 -- -- 77
2019-05-28 22:00:00 16.9 8 Nordeste 27 Este 0 -- -- 75
2019-05-28 21:00:00 17.4 12 Nordeste 34 Nordeste 0 -- -- 76
2019-05-28 20:00:00 19.1 20 Este 35 Este 0 -- -- 74
2019-05-28 19:00:00 21.6 10 Nordeste 26 Este 0 -- -- 66
2019-05-28 18:00:00 24.2 15 Nordeste 33 Nordeste 0 -- -- 58
2019-05-28 17:00:00 25.7 9 Noroeste 31 Sur 0 -- -- 36
2019-05-28 16:00:00 25.9 15 Sudoeste 27 Oeste 0 -- -- 38
2019-05-28 15:00:00 24.5 16 Sudoeste 32 Sudoeste 0 -- -- 48
2019-05-28 14:00:00 24.4 17 Sudoeste 29 Sudoeste 0 -- -- 56
2019-05-28 13:00:00 24 13 Sudoeste 23 Sudoeste 0 -- -- 62
2019-05-28 12:00:00 22.1 10 Sudoeste 19 Sudoeste 0 -- -- 74
2019-05-28 11:00:00 21.8 10 Oeste 19 Sudoeste 0 -- -- 77
2019-05-28 10:00:00 20.3 8 Sudoeste 18 Sudoeste 0 -- -- 86
2019-05-28 09:00:00 18.8 6 Sudoeste 10 Sudoeste 0 -- -- 96
2019-05-28 08:00:00 16.6 0 Calma 5 Sudeste 0 -- -- 98
2019-05-28 07:00:00 13.4 3 Este 5 Este 0 -- -- 97
2019-05-28 06:00:00 13.4 2 Nordeste 4 Este 0 -- -- 96
2019-05-28 05:00:00 13.6 0 Calma 3 Este 0 -- -- 96
2019-05-28 04:00:00 14 0 Calma 4 Sur 0 -- -- 95
2019-05-28 03:00:00 14.2 3 Sudeste 4 Este 0 -- -- 94
2019-05-28 02:00:00 14.9 2 Norte 4 Nordeste 0 -- -- 94
2019-05-28 01:00:00 16.3 0 Calma 8 Sur 0 -- -- 94
2019-05-28 00:00:00 17.1 5 Sur 9 Sudeste 0 -- -- 95
2019-05-27 23:00:00 15.1 4 Sur 8 Sur 0 -- -- 88
2019-05-27 22:00:00 16.7 5 Sudeste 6 Sudeste 0 -- -- 83
2019-05-27 21:00:00 19.5 3 Sudoeste 19 Sudoeste 0 -- -- 76
2019-05-27 20:00:00 20.7 10 Sudoeste 25 Sur 0 -- -- 72
2019-05-27 19:00:00 21.2 18 Sudoeste 29 Sudoeste 0 -- -- 74
2019-05-27 18:00:00 22.5 16 Sudoeste 28 Sudoeste 0 -- -- 64
2019-05-27 17:00:00 23.2 15 Sudoeste 27 Sudoeste 0 -- -- 62
2019-05-27 16:00:00 23.1 15 Sudoeste 30 Sudoeste 0 -- -- 58
2019-05-27 15:00:00 24 14 Sudoeste 31 Sudoeste 0 -- -- 51
2019-05-27 14:00:00 24 13 Sur 23 Sur 0 -- -- 54
2019-05-27 13:00:00 24.2 10 Sudoeste 19 Sudoeste 0 -- -- 47
2019-05-27 12:00:00 23.5 10 Sudoeste 18 Sudoeste 0 -- -- 51
2019-05-27 11:00:00 24.4 10 Sudoeste 17 Sudoeste 0 -- -- 52
2019-05-27 10:00:00 23.2 3 Noroeste 7 Oeste 0 -- -- 47
2019-05-27 09:00:00 19.9 4 Oeste 8 Oeste 0 -- -- 60
2019-05-27 08:00:00 15.5 2 Sudeste 5 Sur 0 -- -- 94
2019-05-27 07:00:00 10.6 3 Sudeste 6 Este 0 -- -- 97
2019-05-27 06:00:00 10.6 5 Este 7 Este 0 -- -- 96
2019-05-27 05:00:00 11.4 2 Sur 9 Sudoeste 0 -- -- 96
2019-05-27 04:00:00 11.6 4 Sur 7 Sudoeste 0 -- -- 97
2019-05-27 03:00:00 11.3 5 Sudoeste 8 Sudoeste 0 -- -- 96
2019-05-27 02:00:00 11.6 3 Sudoeste 5 Sudoeste 0 -- -- 95
2019-05-27 01:00:00 12.3 3 Este 5 Sudeste 0 -- -- 93
2019-05-27 00:00:00 12.6 0 Calma 4 Sudoeste 0 -- -- 90
2019-05-26 23:00:00 14.3 0 Calma 6 Noroeste 0 -- -- 88
2019-05-26 22:00:00 16.3 4 Sur 9 Sur 0 -- -- 86
2019-05-26 21:00:00 18.5 5 Sudoeste 9 Norte 0 -- -- 73
2019-05-26 20:00:00 20.3 5 Norte 14 Norte 0 -- -- 51
2019-05-26 19:00:00 19.9 5 Noroeste 16 Sudoeste 0 -- -- 64
2019-05-26 18:00:00 20.8 12 Sudoeste 26 Sudoeste 0 -- -- 63
2019-05-26 17:00:00 20.2 6 Sudoeste 12 Sudoeste 0 -- -- 66
2019-05-26 16:00:00 19.7 0 Calma 29 Norte 0 -- -- 64
2019-05-26 15:00:00 21.5 11 Nordeste 33 Nordeste 0 -- -- 49
2019-05-26 14:00:00 23.5 12 Nordeste 31 Norte 0 -- -- 47
2019-05-26 13:00:00 22.6 9 Nordeste 31 Nordeste 0 -- -- 49
2019-05-26 12:00:00 23.1 13 Nordeste 30 Norte 0 -- -- 47
2019-05-26 11:00:00 22.7 11 Nordeste 28 Norte 0 -- -- 50
2019-05-26 10:00:00 21.9 6 Norte 19 Norte 0 -- -- 59
2019-05-26 09:00:00 19.8 3 Este 6 Este 0 -- -- 69
2019-05-26 08:00:00 16.1 2 Sudeste 5 Este 0 -- -- 94
2019-05-26 07:00:00 12.1 0 Calma 6 Noroeste 0 -- -- 96
2019-05-26 06:00:00 12.6 5 Oeste 10 Noroeste 0 -- -- 95
2019-05-26 05:00:00 13.3 2 Sudoeste 6 Oeste 0 -- -- 95
2019-05-26 04:00:00 14.6 0 Calma 4 Sudoeste 0 -- -- 94
2019-05-26 03:00:00 14.9 4 Sudoeste 7 Sudoeste 0 -- -- 94
2019-05-26 02:00:00 14.8 0 Calma 5 Oeste 0 -- -- 93
2019-05-26 01:00:00 14.8 2 Sur 3 Sudoeste 0 -- -- 90
2019-05-26 00:00:00 15.9 0 Calma 8 Noroeste 0 -- -- 87
2019-05-25 23:00:00 16.4 3 Noroeste 10 Norte 0 -- -- 85
2019-05-25 22:00:00 16.9 5 Norte 20 Norte 0 -- -- 82
2019-05-25 21:00:00 17.5 11 Norte 25 Norte 0 -- -- 79
2019-05-25 20:00:00 18.3 8 Norte 25 Norte 0 -- -- 75
2019-05-25 19:00:00 18.9 8 Nordeste 28 Norte 0 -- -- 74
2019-05-25 18:00:00 19.4 15 Nordeste 34 Nordeste 0 -- -- 71
2019-05-25 17:00:00 20.8 11 Norte 30 Nordeste 0 -- -- 72
2019-05-25 16:00:00 19.1 13 Norte 27 Norte 0 -- -- 80
2019-05-25 15:00:00 19.6 13 Nordeste 23 Norte 2.6 -- -- 88
2019-05-25 14:00:00 18.3 8 Nordeste 19 Nordeste 1.2 -- -- 86
2019-05-25 13:00:00 19.1 8 Nordeste 15 Nordeste 0 -- -- 81
2019-05-25 12:00:00 17.1 5 Nordeste 14 Nordeste 0 -- -- 90
2019-05-25 11:00:00 16.7 7 Nordeste 17 Norte 0 -- -- 91
2019-05-25 10:00:00 17.1 6 Nordeste 13 Nordeste 0 -- -- 95
2019-05-25 09:00:00 16 4 Nordeste 10 Nordeste 0.8 -- -- 97
2019-05-25 08:00:00 15.4 3 Nordeste 10 Nordeste 0.8 -- -- 96
2019-05-25 07:00:00 15.2 4 Nordeste 9 Norte 0 -- -- 97
2019-05-25 06:00:00 14.9 3 Nordeste 9 Nordeste 0 -- -- 96
2019-05-25 05:00:00 14.8 4 Nordeste 8 Nordeste 0 -- -- 96
2019-05-25 04:00:00 14.7 3 Nordeste 6 Nordeste 0 -- -- 95
2019-05-25 03:00:00 14.8 2 Norte 5 Norte 0 -- -- 96
2019-05-25 02:00:00 14.5 3 Nordeste 8 Nordeste 0 -- -- 96
2019-05-25 01:00:00 14 4 Nordeste 8 Nordeste 0.2 -- -- 94
2019-05-25 00:00:00 14.2 3 Nordeste 12 Nordeste 0 -- -- 93
2019-05-24 23:00:00 14.5 6 Nordeste 13 Nordeste 0 -- -- 93
2019-05-24 22:00:00 15 3 Nordeste 8 Norte 0 -- -- 92
2019-05-24 21:00:00 15.7 2 Nordeste 6 Nordeste 0 -- -- 92
2019-05-24 20:00:00 15.9 2 Nordeste 9 Nordeste 0 -- -- 91
2019-05-24 19:00:00 15.6 4 Nordeste 16 Nordeste 0.8 -- -- 89
2019-05-24 18:00:00 16.7 5 Norte 13 Norte 0.4 -- -- 87
2019-05-24 17:00:00 17.2 5 Norte 13 Noroeste 0.2 -- -- 85
2019-05-24 16:00:00 17.1 5 Norte 15 Norte 0.6 -- -- 85
2019-05-24 15:00:00 18.3 4 Noroeste 8 Noroeste 0.8 -- -- 85
2019-05-24 14:00:00 19 3 Sur 15 Sudoeste 1 -- -- 76
2019-05-24 13:00:00 23.8 3 Norte 9 Norte 0 -- -- 35
2019-05-24 12:00:00 23.7 3 Este 9 Sudeste 0 -- -- 36
2019-05-24 11:00:00 21.4 4 Norte 9 Noroeste 0 -- -- 45
2019-05-24 10:00:00 20.9 4 Nordeste 9 Nordeste 0 -- -- 49
2019-05-24 09:00:00 18.1 3 Nordeste 8 Nordeste 0 -- -- 66
2019-05-24 08:00:00 15.6 5 Nordeste 9 Este 0 -- -- 75
2019-05-24 07:00:00 13.8 3 Nordeste 8 Noroeste 0 -- -- 83
2019-05-24 06:00:00 14.2 4 Este 6 Este 0 -- -- 81
2019-05-24 05:00:00 12.8 4 Este 6 Este 0 -- -- 80
2019-05-24 04:00:00 11.1 2 Este 5 Este 0 -- -- 83
2019-05-24 03:00:00 11.5 4 Este 5 Este 0 -- -- 80
2019-05-24 02:00:00 12.9 2 Este 6 Este 0 -- -- 75
2019-05-24 01:00:00 13.5 2 Este 5 Norte 0 -- -- 75
2019-05-24 00:00:00 14 3 Este 6 Este 0 -- -- 74
2019-05-23 23:00:00 14.5 3 Nordeste 5 Nordeste 0 -- -- 72
2019-05-23 22:00:00 15.7 3 Nordeste 5 Este 0 -- -- 60
2019-05-23 21:00:00 19.4 4 Sur 13 Sur 0 -- -- 49
2019-05-23 20:00:00 22 8 Sur 19 Sur 0 -- -- 41
2019-05-23 19:00:00 23 9 Sudoeste 21 Sudoeste 0 -- -- 35
2019-05-23 18:00:00 25 12 Sur 25 Sudoeste 0 -- -- 28
2019-05-23 17:00:00 26.3 13 Sudoeste 26 Sudoeste 0 -- -- 27
2019-05-23 16:00:00 26.7 13 Sudoeste 29 Sudoeste 0 -- -- 29
2019-05-23 15:00:00 26.7 15 Sudoeste 25 Sudoeste 0 -- -- 29
2019-05-23 14:00:00 26.9 14 Sudoeste 23 Sudoeste 0 -- -- 31
2019-05-23 13:00:00 26.4 10 Sudoeste 23 Sudoeste 0 -- -- 33
2019-05-23 12:00:00 25.6 11 Oeste 22 Sudoeste 0 -- -- 35
2019-05-23 11:00:00 23.8 15 Oeste 22 Oeste 0 -- -- 39
2019-05-23 10:00:00 22.5 9 Sudoeste 18 Sudoeste 0 -- -- 39
2019-05-23 09:00:00 19.2 3 Oeste 4 Oeste 0 -- -- 79
2019-05-23 08:00:00 14.4 2 Este -- -- 0 -- -- 98
2019-05-23 07:00:00 8.7 4 Este 5 Este 0 -- -- 96
2019-05-23 06:00:00 8.5 4 Este 6 Este 0 -- -- 94
2019-05-23 05:00:00 8.8 5 Este 6 Este 0 -- -- 93
2019-05-23 04:00:00 9.3 4 Este 5 Este 0 -- -- 93
2019-05-23 03:00:00 10.1 4 Este 6 Este 0 -- -- 92
2019-05-23 02:00:00 10.5 2 Norte 5 Este 0 -- -- 89
2019-05-23 01:00:00 11.8 3 Este 5 Este 0 -- -- 89
2019-05-23 00:00:00 12.3 3 Este 5 Sudeste 0 -- -- 84
2019-05-22 23:00:00 13.6 4 Sur 5 Sur 0 -- -- 75
2019-05-22 22:00:00 16.5 0 Calma 7 Sur 0 -- -- 70
2019-05-22 21:00:00 19.4 5 Sudoeste 14 Oeste 0 -- -- 53
2019-05-22 20:00:00 22.4 9 Sudoeste 19 Sudoeste 0 -- -- 45
2019-05-22 19:00:00 23.5 11 Sudoeste 24 Oeste 0 -- -- 41
2019-05-22 18:00:00 25.1 12 Sudoeste 24 Sur 0 -- -- 33
2019-05-22 17:00:00 25.8 10 Sudeste 25 Sudeste 0 -- -- 30
2019-05-22 16:00:00 26.1 12 Sudeste 23 Sudeste 0 -- -- 31
2019-05-22 15:00:00 25.9 13 Sudeste 27 Sur 0 -- -- 33
2019-05-22 14:00:00 26.5 11 Sudeste 24 Sudeste 0 -- -- 32
2019-05-22 13:00:00 25.1 10 Sudeste 22 Sudeste 0 -- -- 37
2019-05-22 12:00:00 25.4 7 Sur 15 Sur 0 -- -- 35
2019-05-22 11:00:00 23 4 Sudeste 9 Sudeste 0 -- -- 38
2019-05-22 10:00:00 19.9 0 Calma 7 Nordeste 0 -- -- 57
2019-05-22 09:00:00 16.5 2 Nordeste 5 Nordeste 0 -- -- 91
2019-05-22 08:00:00 11.7 0 Calma 6 Nordeste 0 -- -- 96
2019-05-22 07:00:00 8.9 2 Nordeste 5 Este 0 -- -- 96
2019-05-22 06:00:00 8.7 3 Este 6 Este 0 -- -- 94
2019-05-22 05:00:00 8.6 3 Este 5 Este 0 -- -- 93
2019-05-22 04:00:00 9.5 4 Este 5 Este 0 -- -- 93
2019-05-22 03:00:00 9.6 4 Este 5 Este 0 -- -- 92
2019-05-22 02:00:00 10.3 3 Este 4 Este 0 -- -- 90
2019-05-22 01:00:00 11 0 Calma 5 Sudeste 0 -- -- 87
2019-05-22 00:00:00 12.6 2 Sudeste 5 Este 0 -- -- 84